createdAt,value
2019-03-09T00:00:36.773Z,100698.19
2019-03-09T00:03:07.768Z,100692.52
2019-03-09T00:05:38.561Z,100679.55
2019-03-09T00:08:10.192Z,100687.76
2019-03-09T00:10:46.361Z,100685.30
2019-03-09T00:13:17.141Z,100671.81
2019-03-09T00:15:53.523Z,100667.84
2019-03-09T00:18:24.211Z,100660.24
2019-03-09T00:20:54.943Z,100666.67
2019-03-09T00:23:42.407Z,100667.75
2019-03-09T00:26:18.713Z,100666.91
2019-03-09T00:29:03.019Z,100680.89
2019-03-09T00:31:44.253Z,100676.12
2019-03-09T00:34:30.099Z,100666.67
2019-03-09T00:37:00.785Z,100675.66
2019-03-09T00:39:40.688Z,100663.42
2019-03-09T00:42:11.455Z,100666.89
2019-03-09T00:44:42.084Z,100663.95
2019-03-09T00:47:12.767Z,100654.70
2019-03-09T00:49:50.645Z,100654.70
2019-03-09T00:52:24.860Z,100645.61
2019-03-09T00:54:57.491Z,100633.59
2019-03-09T00:57:28.118Z,100629.72
2019-03-09T00:59:59.306Z,100633.14
2019-03-09T01:02:29.953Z,100628.78
2019-03-09T01:05:01.591Z,100626.40
2019-03-09T01:07:33.334Z,100619.93
2019-03-09T01:10:04.361Z,100622.59
2019-03-09T01:12:35.047Z,100627.50
2019-03-09T01:15:06.336Z,100620.13
2019-03-09T01:17:37.021Z,100614.03
2019-03-09T01:20:10.160Z,100603.89
2019-03-09T01:22:40.739Z,100594.48
2019-03-09T01:25:11.668Z,100586.27
2019-03-09T01:27:42.400Z,100581.22
2019-03-09T01:30:15.439Z,100571.67
2019-03-09T01:32:46.262Z,100558.56
2019-03-09T01:35:29.439Z,100564.53
2019-03-09T01:38:13.420Z,100545.37
2019-03-09T01:40:44.117Z,100543.86
2019-03-09T01:43:14.713Z,100558.05
2019-03-09T01:45:45.413Z,100541.48
2019-03-09T01:48:16.115Z,100538.14
2019-03-09T01:50:46.751Z,100545.50
2019-03-09T01:53:20.621Z,100545.59
2019-03-09T01:55:51.282Z,100537.77
2019-03-09T01:58:22.013Z,100523.32
2019-03-09T02:00:56.680Z,100521.67
2019-03-09T02:03:27.460Z,100517.48
2019-03-09T02:05:58.131Z,100514.31
2019-03-09T02:08:29.754Z,100515.73
2019-03-09T02:11:00.422Z,100511.39
2019-03-09T02:13:31.025Z,100506.33
2019-03-09T02:16:01.687Z,100506.81
2019-03-09T02:18:32.255Z,100508.32
2019-03-09T02:21:04.039Z,100496.03
2019-03-09T02:23:34.760Z,100499.74
2019-03-09T02:26:05.499Z,100499.26
2019-03-09T02:28:36.210Z,100510.05
2019-03-09T02:31:06.833Z,100494.41
2019-03-09T02:33:37.525Z,100498.38
2019-03-09T02:36:09.236Z,100501.53
2019-03-09T02:38:41.582Z,100499.66
2019-03-09T02:41:12.173Z,100507.80
2019-03-09T02:43:42.734Z,100502.20
2019-03-09T02:46:32.302Z,100487.56
2019-03-09T02:49:02.994Z,100490.97
2019-03-09T02:51:33.703Z,100499.20
2019-03-09T02:54:04.515Z,100506.39
2019-03-09T02:57:11.719Z,100489.64
2019-03-09T02:59:42.437Z,100488.70
2019-03-09T03:02:20.855Z,100495.80
2019-03-09T03:04:51.564Z,100502.83
2019-03-09T03:07:26.522Z,100500.23
2019-03-09T03:10:03.791Z,100497.47
2019-03-09T03:12:36.603Z,100509.72
2019-03-09T03:15:13.278Z,100489.97
2019-03-09T03:17:43.851Z,100493.84
2019-03-09T03:20:36.725Z,100503.80
2019-03-09T03:23:07.206Z,100513.34
2019-03-09T03:25:37.899Z,100491.63
2019-03-09T03:28:09.992Z,100500.38
2019-03-09T03:30:43.835Z,100502.84
2019-03-09T03:33:26.628Z,100499.92
2019-03-09T03:36:01.025Z,100498.17
2019-03-09T03:38:41.092Z,100487.28
2019-03-09T03:41:12.812Z,100491.08
2019-03-09T03:43:46.500Z,100508.20
2019-03-09T03:46:17.248Z,100503.53
2019-03-09T03:48:47.928Z,100496.27
2019-03-09T03:51:18.524Z,100495.42
2019-03-09T03:53:53.362Z,100504.03
2019-03-09T03:56:27.957Z,100508.84
2019-03-09T03:58:59.663Z,100510.02
2019-03-09T04:01:34.269Z,100506.53
2019-03-09T04:04:04.959Z,100514.45
2019-03-09T04:06:35.684Z,100513.56
2019-03-09T04:09:07.331Z,100518.94
2019-03-09T04:11:39.335Z,100524.39
2019-03-09T04:14:10.193Z,100529.58
2019-03-09T04:16:41.015Z,100532.37
2019-03-09T04:19:11.833Z,100547.69
2019-03-09T04:21:42.610Z,100549.59
2019-03-09T04:24:13.193Z,100564.91
2019-03-09T04:26:43.908Z,100571.30
2019-03-09T04:29:38.609Z,100578.89
2019-03-09T04:32:09.356Z,100581.63
2019-03-09T04:34:39.898Z,100598.22
2019-03-09T04:37:10.549Z,100598.55
2019-03-09T04:39:57.541Z,100600.99
2019-03-09T04:42:34.239Z,100597.98
2019-03-09T04:45:10.867Z,100593.67
2019-03-09T04:47:41.536Z,100596.97
2019-03-09T04:50:12.226Z,100597.28
2019-03-09T04:52:49.163Z,100601.78
2019-03-09T04:55:21.965Z,100605.02
2019-03-09T05:01:19.955Z,100619.15
2019-03-09T05:04:28.685Z,100619.33
2019-03-09T05:07:13.747Z,100614.66
2019-03-09T05:10:18.160Z,100613.16
2019-03-09T05:13:37.365Z,100620.66
2019-03-09T05:16:27.748Z,100630.30
2019-03-09T05:19:04.803Z,100628.62
2019-03-09T05:21:40.563Z,100628.38
2019-03-09T05:24:13.303Z,100627.69
2019-03-09T05:26:45.045Z,100653.05
2019-03-09T05:29:23.199Z,100655.36
2019-03-09T05:32:14.362Z,100666.71
2019-03-09T05:34:46.971Z,100669.88
2019-03-09T05:37:20.905Z,100674.41
2019-03-09T05:39:55.277Z,100665.23
2019-03-09T05:42:32.753Z,100663.80
2019-03-09T05:45:06.937Z,100678.35
2019-03-09T05:47:38.617Z,100668.01
2019-03-09T05:50:12.880Z,100659.69
2019-03-09T05:52:43.537Z,100657.55
2019-03-09T05:55:16.808Z,100654.58
2019-03-09T05:57:47.476Z,100643.56
2019-03-09T06:00:18.373Z,100646.80
2019-03-09T06:02:48.978Z,100651.80
2019-03-09T06:05:33.642Z,100658.61
2019-03-09T06:08:14.613Z,100662.78
2019-03-09T06:10:45.265Z,100658.98
2019-03-09T06:13:24.538Z,100664.22
2019-03-09T06:15:55.234Z,100674.78
2019-03-09T06:18:25.901Z,100666.95
2019-03-09T06:21:02.298Z,100674.55
2019-03-09T06:23:33.150Z,100669.88
2019-03-09T06:26:03.922Z,100678.67
2019-03-09T06:28:34.671Z,100688.00
2019-03-09T06:31:07.406Z,100723.03
2019-03-09T06:33:38.746Z,100731.41
2019-03-09T06:36:45.254Z,100736.38
2019-03-09T06:39:49.781Z,100740.82
2019-03-09T06:42:34.031Z,100737.48
2019-03-09T06:45:09.443Z,100742.40
2019-03-09T06:47:40.178Z,100749.13
2019-03-09T06:50:43.368Z,100749.13
2019-03-09T06:53:14.006Z,100748.59
2019-03-09T06:55:44.595Z,100751.10
2019-03-09T06:58:15.212Z,100745.66
2019-03-09T07:00:47.831Z,100756.11
2019-03-09T07:03:18.589Z,100767.33
2019-03-09T07:05:49.366Z,100779.52
2019-03-09T07:08:23.974Z,100787.09
2019-03-09T07:10:54.672Z,100784.91
2019-03-09T07:13:25.290Z,100773.17
2019-03-09T07:15:56.031Z,100759.81
2019-03-09T07:18:30.408Z,100760.73
2019-03-09T07:21:00.988Z,100753.00
2019-03-09T07:23:36.183Z,100748.17
2019-03-09T07:26:13.913Z,100748.09
2019-03-09T07:28:45.512Z,100779.34
2019-03-09T07:31:17.225Z,100789.55
2019-03-09T07:33:47.881Z,100798.26
2019-03-09T07:36:18.633Z,100783.23
2019-03-09T07:38:49.936Z,100792.23
2019-03-09T07:41:20.573Z,100805.53
2019-03-09T07:43:51.229Z,100797.11
2019-03-09T07:46:21.947Z,100800.03
2019-03-09T07:49:03.123Z,100797.98
2019-03-09T07:51:33.862Z,100792.74
2019-03-09T07:54:04.612Z,100798.58
2019-03-09T07:56:35.347Z,100798.98
2019-03-09T07:59:06.083Z,100800.89
2019-03-09T08:01:36.705Z,100799.92
2019-03-09T08:04:07.354Z,100800.48
2019-03-09T08:06:37.968Z,100794.72
2019-03-09T08:09:09.069Z,100794.95
2019-03-09T08:11:49.479Z,100792.72
2019-03-09T08:14:20.169Z,100799.14
2019-03-09T08:16:56.195Z,100801.67
2019-03-09T08:19:41.197Z,100792.07
2019-03-09T08:22:13.919Z,100786.13
2019-03-09T08:24:44.526Z,100793.28
2019-03-09T08:27:20.025Z,100787.77
2019-03-09T08:30:02.084Z,100778.63
2019-03-09T08:32:34.369Z,100781.55
2019-03-09T08:35:05.431Z,100783.59
2019-03-09T08:37:36.168Z,100783.50
2019-03-09T08:40:18.406Z,100783.34
2019-03-09T08:42:49.207Z,100791.17
2019-03-09T08:45:20.065Z,100802.56
2019-03-09T08:47:52.562Z,100804.89
2019-03-09T08:50:23.270Z,100812.41
2019-03-09T08:53:09.808Z,100836.77
2019-03-09T08:55:44.518Z,100832.82
2019-03-09T08:58:19.286Z,100842.35
2019-03-09T09:00:50.059Z,100830.41
2019-03-09T09:03:21.665Z,100828.66
2019-03-09T09:05:52.394Z,100824.16
2019-03-09T09:08:29.863Z,100830.23
2019-03-09T09:11:06.625Z,100833.36
2019-03-09T09:13:37.294Z,100823.21
2019-03-09T09:16:08.050Z,100819.39
2019-03-09T09:18:49.911Z,100825.12
2019-03-09T09:21:23.729Z,100818.98
2019-03-09T09:23:54.351Z,100826.03
2019-03-09T09:26:26.970Z,100811.11
2019-03-09T09:29:07.688Z,100808.77
2019-03-09T09:31:43.235Z,100828.78
2019-03-09T09:34:13.945Z,100823.64
2019-03-09T09:36:46.226Z,100828.88
2019-03-09T09:39:17.994Z,100844.85
2019-03-09T09:41:48.798Z,100852.56
2019-03-09T09:44:20.411Z,100858.17
2019-03-09T09:46:51.179Z,100827.16
2019-03-09T09:49:22.103Z,100821.77
2019-03-09T09:51:52.761Z,100830.42
2019-03-09T09:54:24.395Z,100816.98
2019-03-09T09:57:06.607Z,100815.69
2019-03-09T09:59:47.144Z,100816.11
2019-03-09T10:02:17.923Z,100809.27
2019-03-09T10:04:48.622Z,100807.15
2019-03-09T10:07:19.291Z,100792.00
2019-03-09T10:09:50.083Z,100795.88
2019-03-09T10:12:20.750Z,100807.08
2019-03-09T10:14:59.238Z,100811.34
2019-03-09T10:17:29.952Z,100807.88
2019-03-09T10:20:00.570Z,100811.81
2019-03-09T10:22:31.388Z,100817.31
2019-03-09T10:25:02.084Z,100812.33
2019-03-09T10:27:37.853Z,100821.50
2019-03-09T10:30:11.273Z,100822.33
2019-03-09T10:32:54.689Z,100819.73
2019-03-09T10:35:31.466Z,100803.56
2019-03-09T10:38:05.246Z,100788.78
2019-03-09T10:40:35.949Z,100771.42
2019-03-09T10:43:06.610Z,100774.59
2019-03-09T10:45:44.315Z,100766.65
2019-03-09T10:48:17.554Z,100760.48
2019-03-09T10:50:48.265Z,100729.98
2019-03-09T10:53:25.815Z,100721.60
2019-03-09T10:56:02.095Z,100719.88
2019-03-09T10:58:32.796Z,100719.71
2019-03-09T11:01:03.553Z,100716.07
2019-03-09T11:03:34.241Z,100712.20
2019-03-09T11:06:12.136Z,100713.84
2019-03-09T11:08:44.912Z,100716.34
2019-03-09T11:11:16.622Z,100712.53
2019-03-09T11:13:52.004Z,100687.95
2019-03-09T11:16:21.675Z,100713.25
2019-03-09T11:18:56.039Z,100713.09
2019-03-09T11:21:26.729Z,100730.79
2019-03-09T11:23:57.473Z,100737.16
2019-03-09T11:26:28.161Z,100749.94
2019-03-09T11:28:58.854Z,100718.92
2019-03-09T11:31:29.446Z,100725.39
2019-03-09T11:34:00.125Z,100709.48
2019-03-09T11:36:30.814Z,100726.11
2019-03-09T11:39:01.308Z,100693.50
2019-03-09T11:41:33.253Z,100705.65
2019-03-09T11:44:11.656Z,100696.91
2019-03-09T11:46:42.401Z,100698.05
2019-03-09T11:49:14.133Z,100699.98
2019-03-09T11:51:54.996Z,100680.33
2019-03-09T11:54:25.529Z,100676.44
2019-03-09T11:56:56.357Z,100656.12
2019-03-09T11:59:27.027Z,100646.86
2019-03-09T12:01:58.642Z,100628.54
2019-03-09T12:04:29.263Z,100618.78
2019-03-09T12:07:00.119Z,100628.13
2019-03-09T12:09:30.813Z,100623.96
2019-03-09T12:12:03.737Z,100610.13
2019-03-09T12:14:34.420Z,100612.75
2019-03-09T12:17:12.700Z,100611.96
2019-03-09T12:19:38.570Z,100612.23
2019-03-09T12:22:10.285Z,100615.59
2019-03-09T12:24:40.981Z,100625.33
2019-03-09T12:27:11.730Z,100620.43
2019-03-09T12:29:42.450Z,100614.09
2019-03-09T12:32:13.114Z,100609.59
2019-03-09T12:34:43.966Z,100578.84
2019-03-09T12:37:24.998Z,100578.20
2019-03-09T12:39:55.612Z,100574.90
2019-03-09T12:42:26.229Z,100573.82
2019-03-09T12:44:56.956Z,100578.28
2019-03-09T12:47:27.704Z,100561.86
2019-03-09T12:50:04.492Z,100563.17
2019-03-09T12:52:36.411Z,100557.20
2019-03-09T12:55:07.194Z,100526.48
2019-03-09T12:57:37.884Z,100536.45
2019-03-09T13:00:16.615Z,100507.03
2019-03-09T13:03:05.329Z,100509.14
2019-03-09T13:05:35.902Z,100486.80
2019-03-09T13:08:07.754Z,100482.97
2019-03-09T13:10:43.609Z,100498.20
2019-03-09T13:13:16.314Z,100510.07
2019-03-09T13:15:47.009Z,100489.73
2019-03-09T13:18:39.098Z,100497.45
2019-03-09T13:21:14.720Z,100485.88
2019-03-09T13:23:45.510Z,100487.66
2019-03-09T13:26:17.124Z,100490.02
2019-03-09T13:28:53.899Z,100484.84
2019-03-09T13:31:24.571Z,100478.59
2019-03-09T13:33:55.183Z,100467.05
2019-03-09T13:36:26.007Z,100462.85
2019-03-09T13:38:58.811Z,100472.00
2019-03-09T13:41:29.782Z,100474.92
2019-03-09T13:44:00.483Z,100474.06
2019-03-09T13:46:31.257Z,100530.77
2019-03-09T13:49:01.987Z,100530.79
2019-03-09T13:51:37.993Z,100522.31
2019-03-09T13:54:08.631Z,100501.02
2019-03-09T13:56:39.402Z,100490.16
2019-03-09T13:59:10.237Z,100493.03
2019-03-09T14:01:41.261Z,100479.45
2019-03-09T14:04:11.952Z,100476.65
2019-03-09T14:06:46.586Z,100449.28
2019-03-09T14:09:17.200Z,100428.02
2019-03-09T14:11:54.863Z,100433.31
2019-03-09T14:14:29.749Z,100417.61
2019-03-09T14:17:00.365Z,100391.12
2019-03-09T14:19:31.091Z,100398.27
2019-03-09T14:22:03.816Z,100419.25
2019-03-09T14:24:34.552Z,100418.08
2019-03-09T14:27:10.844Z,100452.84
2019-03-09T14:29:42.601Z,100482.25
2019-03-09T14:32:13.925Z,100474.06
2019-03-09T14:34:44.660Z,100450.51
2019-03-09T14:37:15.426Z,100438.77
2019-03-09T14:39:47.149Z,100453.66
2019-03-09T14:42:21.304Z,100479.36
2019-03-09T14:44:53.014Z,100465.38
2019-03-09T14:47:23.668Z,100449.53
2019-03-09T14:49:55.317Z,100435.00
2019-03-09T14:52:32.321Z,100458.41
2019-03-09T14:55:04.190Z,100465.34
2019-03-09T14:57:34.916Z,100456.16
2019-03-09T15:00:14.984Z,100460.80
2019-03-09T15:02:48.938Z,100445.52
2019-03-09T15:05:22.898Z,100434.80
2019-03-09T15:07:53.639Z,100421.23
2019-03-09T15:10:24.258Z,100427.79
2019-03-09T15:12:54.936Z,100436.63
2019-03-09T15:15:25.623Z,100433.84
2019-03-09T15:17:59.839Z,100427.80
2019-03-09T15:20:33.720Z,100430.09
2019-03-09T15:23:05.513Z,100457.63
2019-03-09T15:25:36.294Z,100445.69
2019-03-09T15:28:07.973Z,100442.02
2019-03-09T15:30:38.684Z,100455.09
2019-03-09T15:33:09.396Z,100453.19
2019-03-09T15:35:40.066Z,100446.25
2019-03-09T15:38:10.910Z,100454.73
2019-03-09T15:40:41.652Z,100468.95
2019-03-09T15:43:12.447Z,100457.72
2019-03-09T15:45:44.137Z,100518.41
2019-03-09T15:48:18.417Z,100559.95
2019-03-09T15:50:51.999Z,100538.34
2019-03-09T15:53:24.429Z,100527.67
2019-03-09T15:55:56.409Z,100533.16
2019-03-09T15:58:28.868Z,100539.69
2019-03-09T16:01:01.905Z,100559.05
2019-03-09T16:03:35.017Z,100554.73
2019-03-09T16:06:08.977Z,100565.03
2019-03-09T16:08:42.642Z,100571.12
2019-03-09T16:11:14.899Z,100598.67
2019-03-09T16:13:45.831Z,100587.13
2019-03-09T16:16:17.758Z,100682.44
2019-03-09T16:18:51.889Z,100726.88
2019-03-09T16:21:25.831Z,100750.98
2019-03-09T16:23:59.084Z,100762.87
2019-03-09T16:26:31.102Z,100770.14
2019-03-09T16:29:05.130Z,100759.23
2019-03-09T16:31:37.459Z,100766.66
2019-03-09T16:34:08.568Z,100750.73
2019-03-09T16:36:40.095Z,100766.28
2019-03-09T16:39:10.788Z,100772.28
2019-03-09T16:41:45.155Z,100763.39
2019-03-09T16:44:17.138Z,100754.27
2019-03-09T16:46:53.801Z,100753.18
2019-03-09T16:49:25.389Z,100760.55
2019-03-09T16:51:57.042Z,100769.98
2019-03-09T16:54:29.690Z,100782.80
2019-03-09T16:57:00.320Z,100770.69
2019-03-09T16:59:41.277Z,100800.78
2019-03-09T17:02:11.971Z,100806.05
2019-03-09T17:05:05.460Z,100815.25
2019-03-09T17:07:37.051Z,100822.91
2019-03-09T17:10:14.580Z,100847.83
2019-03-09T17:12:46.427Z,100856.25
2019-03-09T17:15:24.335Z,100857.76
2019-03-09T17:17:55.933Z,100862.17
2019-03-09T17:20:26.621Z,100868.20
2019-03-09T17:22:59.425Z,100871.39
2019-03-09T17:25:33.143Z,100879.89
2019-03-09T17:28:03.936Z,100896.34
2019-03-09T17:30:34.589Z,100902.97
2019-03-09T17:33:09.351Z,100916.06
2019-03-09T17:35:43.098Z,100934.22
2019-03-09T17:38:13.826Z,100929.55
2019-03-09T17:40:45.667Z,100935.48
2019-03-09T17:43:17.411Z,100946.59
2019-03-09T17:45:49.377Z,100942.39
2019-03-09T17:48:23.030Z,100955.09
2019-03-09T17:50:56.007Z,100953.44
2019-03-09T17:53:27.428Z,100961.67
2019-03-09T17:55:59.142Z,100957.05
2019-03-09T17:58:29.829Z,100971.75
2019-03-09T18:01:00.565Z,100971.41
2019-03-09T18:03:31.569Z,100983.00
2019-03-09T18:06:08.338Z,100989.27
2019-03-09T18:08:39.062Z,101002.16
2019-03-09T18:11:10.821Z,101004.55
2019-03-09T18:13:41.652Z,101007.02
2019-03-09T18:16:13.344Z,101005.59
2019-03-09T18:18:44.082Z,101011.07
2019-03-09T18:21:15.908Z,101021.44
2019-03-09T18:23:46.760Z,101023.87
2019-03-09T18:26:19.431Z,101039.38
2019-03-09T18:28:50.346Z,101039.20
2019-03-09T18:31:22.212Z,101047.70
2019-03-09T18:33:52.984Z,101046.90
2019-03-09T18:36:27.058Z,101053.57
2019-03-09T18:38:57.777Z,101060.80
2019-03-09T18:41:28.660Z,101068.57
2019-03-09T18:43:59.456Z,101075.47
2019-03-09T18:46:32.224Z,101067.66
2019-03-09T18:49:04.063Z,101078.13
2019-03-09T18:51:34.859Z,101076.51
2019-03-09T18:54:06.088Z,101083.23
2019-03-09T18:56:37.287Z,101086.73
2019-03-09T18:59:15.090Z,101090.00
2019-03-09T19:01:46.890Z,101096.14
2019-03-09T19:04:19.898Z,101101.18
2019-03-09T19:06:50.666Z,101105.30
2019-03-09T19:09:21.708Z,101112.16
2019-03-09T19:11:52.419Z,101109.88
2019-03-09T19:14:23.287Z,101115.13
2019-03-09T19:16:54.088Z,101108.93
2019-03-09T19:19:25.017Z,101105.61
2019-03-09T19:21:59.061Z,101110.47
2019-03-09T19:24:33.355Z,101108.55
2019-03-09T19:27:06.183Z,101117.66
2019-03-09T19:29:36.898Z,101120.64
2019-03-09T19:32:08.775Z,101116.03
2019-03-09T19:34:39.737Z,101123.15
2019-03-09T19:37:14.818Z,101126.91
2019-03-09T19:39:45.562Z,101127.24
2019-03-09T19:42:16.409Z,101137.27
2019-03-09T19:44:47.309Z,101134.02
2019-03-09T19:47:18.091Z,101139.03
2019-03-09T19:49:54.668Z,101134.16
2019-03-09T19:52:28.356Z,101142.70
2019-03-09T19:55:08.306Z,101143.09
2019-03-09T19:57:44.514Z,101150.44
2019-03-09T20:00:18.538Z,101144.14
2019-03-09T20:02:55.591Z,101137.78
2019-03-09T20:05:33.409Z,101136.15
2019-03-09T20:08:10.020Z,101151.15
2019-03-09T20:10:40.661Z,101142.20
2019-03-09T20:13:11.521Z,101150.00
2019-03-09T20:15:45.614Z,101153.58
2019-03-09T20:18:16.465Z,101147.59
2019-03-09T20:20:52.446Z,101145.03
2019-03-09T20:23:32.243Z,101153.30
2019-03-09T20:26:03.194Z,101146.80
2019-03-09T20:28:35.392Z,101150.41
2019-03-09T20:31:06.128Z,101159.84
2019-03-09T20:33:46.860Z,101164.81
2019-03-09T20:36:19.800Z,101168.70
2019-03-09T20:38:51.763Z,101172.39
2019-03-09T20:41:23.651Z,101177.50
2019-03-09T20:43:55.048Z,101175.87
2019-03-09T20:46:29.279Z,101182.47
2019-03-09T20:49:09.278Z,101183.30
2019-03-09T20:51:41.185Z,101177.62
2019-03-09T20:54:12.991Z,101182.47
2019-03-09T20:56:43.669Z,101186.71
2019-03-09T20:59:14.376Z,101184.84
2019-03-09T21:01:45.109Z,101180.45
2019-03-09T21:04:16.685Z,101174.34
2019-03-09T21:06:49.371Z,101181.95
2019-03-09T21:09:20.000Z,101181.53
2019-03-09T21:11:54.111Z,101176.58
2019-03-09T21:14:24.861Z,101182.23
2019-03-09T21:16:55.555Z,101181.27
2019-03-09T21:19:26.227Z,101182.08
2019-03-09T21:21:56.813Z,101179.11
2019-03-09T21:24:27.494Z,101172.59
2019-03-09T21:27:00.069Z,101172.80
2019-03-09T21:29:31.757Z,101171.88
2019-03-09T21:32:02.621Z,101172.80
2019-03-09T21:34:33.330Z,101174.36
2019-03-09T21:37:11.807Z,101182.20
2019-03-09T21:39:42.425Z,101174.02
2019-03-09T21:42:13.090Z,101175.28
2019-03-09T21:44:43.894Z,101176.28
2019-03-09T21:47:16.496Z,101172.02
2019-03-09T21:49:47.242Z,101169.45
2019-03-09T21:52:17.840Z,101172.92
2019-03-09T21:54:49.458Z,101167.02
2019-03-09T21:57:19.950Z,101166.28
2019-03-09T21:59:50.712Z,101169.17
2019-03-09T22:02:21.417Z,101170.38
2019-03-09T22:04:53.039Z,101169.05
2019-03-09T22:07:31.790Z,101173.66
2019-03-09T22:10:02.516Z,101167.44
2019-03-09T22:12:33.886Z,101167.17
2019-03-09T22:15:11.848Z,101172.40
2019-03-09T22:17:47.661Z,101175.70
2019-03-09T22:20:20.475Z,101180.46
2019-03-09T22:22:50.736Z,101171.95
2019-03-09T22:25:21.541Z,101169.59
2019-03-09T22:27:58.389Z,101169.86
2019-03-09T22:30:29.118Z,101175.08
2019-03-09T22:32:59.783Z,101177.23
2019-03-09T22:35:36.675Z,101172.74
2019-03-09T22:38:15.184Z,101170.39
2019-03-09T22:40:46.421Z,101174.27
2019-03-09T22:43:17.140Z,101173.19
2019-03-09T22:45:48.851Z,101164.66
2019-03-09T22:48:23.804Z,101163.72
2019-03-09T22:50:54.499Z,101163.99
2019-03-09T22:53:25.070Z,101167.48
2019-03-09T22:56:08.642Z,101164.45
2019-03-09T22:58:39.574Z,101173.06
2019-03-09T23:01:27.864Z,101162.03
2019-03-09T23:03:59.909Z,101164.88
2019-03-09T23:06:30.881Z,101168.13
2019-03-09T23:09:30.354Z,101157.61
2019-03-09T23:12:12.394Z,101158.34
2019-03-09T23:14:43.287Z,101159.89
2019-03-09T23:17:24.896Z,101161.11
2019-03-09T23:19:55.569Z,101148.92
2019-03-09T23:22:30.370Z,101145.90
2019-03-09T23:25:15.770Z,101136.91
2019-03-09T23:31:01.630Z,101139.50
2019-03-09T23:33:51.433Z,101136.69
2019-03-09T23:36:22.419Z,101144.37
2019-03-09T23:38:53.334Z,101141.23
2019-03-09T23:41:34.433Z,101135.14
2019-03-09T23:44:05.650Z,101135.14
2019-03-09T23:46:36.480Z,101133.17
2019-03-09T23:49:07.141Z,101135.39
2019-03-09T23:51:38.188Z,101135.47
2019-03-09T23:54:08.830Z,101132.86
2019-03-09T23:56:50.306Z,101139.59
2019-03-09T23:59:23.114Z,101139.84
